sensor_id;sensor_type;location;lat;lon;timestamp;temperature;humidity
68719;DHT22;55696;52.138;5.444;2023-03-01T00:01:28;4.00;65.00
68719;DHT22;55696;52.138;5.444;2023-03-01T00:03:56;4.00;66.30
68719;DHT22;55696;52.138;5.444;2023-03-01T00:06:24;3.90;65.80
68719;DHT22;55696;52.138;5.444;2023-03-01T00:08:50;3.90;66.00
68719;DHT22;55696;52.138;5.444;2023-03-01T00:11:29;3.90;65.40
68719;DHT22;55696;52.138;5.444;2023-03-01T00:13:58;3.90;67.60
68719;DHT22;55696;52.138;5.444;2023-03-01T00:16:28;3.90;66.90
68719;DHT22;55696;52.138;5.444;2023-03-01T00:18:57;3.90;67.10
68719;DHT22;55696;52.138;5.444;2023-03-01T00:21:24;3.80;66.80
68719;DHT22;55696;52.138;5.444;2023-03-01T00:23:52;3.90;66.30
68719;DHT22;55696;52.138;5.444;2023-03-01T00:26:21;3.80;66.40
68719;DHT22;55696;52.138;5.444;2023-03-01T00:28:48;3.80;66.90
68719;DHT22;55696;52.138;5.444;2023-03-01T00:31:18;3.80;66.20
68719;DHT22;55696;52.138;5.444;2023-03-01T00:33:46;3.80;67.60
68719;DHT22;55696;52.138;5.444;2023-03-01T00:36:14;3.80;66.10
68719;DHT22;55696;52.138;5.444;2023-03-01T00:38:43;3.80;67.20
68719;DHT22;55696;52.138;5.444;2023-03-01T00:41:13;3.80;67.30
68719;DHT22;55696;52.138;5.444;2023-03-01T00:43:41;3.80;67.40
68719;DHT22;55696;52.138;5.444;2023-03-01T00:46:16;3.80;66.70
68719;DHT22;55696;52.138;5.444;2023-03-01T00:48:44;3.70;67.90
68719;DHT22;55696;52.138;5.444;2023-03-01T00:51:14;3.80;66.90
68719;DHT22;55696;52.138;5.444;2023-03-01T00:53:41;3.70;68.10
68719;DHT22;55696;52.138;5.444;2023-03-01T00:56:10;3.70;67.20
68719;DHT22;55696;52.138;5.444;2023-03-01T00:58:37;3.70;68.00
68719;DHT22;55696;52.138;5.444;2023-03-01T01:01:09;3.70;67.00
68719;DHT22;55696;52.138;5.444;2023-03-01T01:03:46;3.70;68.90
68719;DHT22;55696;52.138;5.444;2023-03-01T01:06:21;3.70;67.10
68719;DHT22;55696;52.138;5.444;2023-03-01T01:08:49;3.60;69.00
68719;DHT22;55696;52.138;5.444;2023-03-01T01:11:17;3.60;68.40
68719;DHT22;55696;52.138;5.444;2023-03-01T01:13:45;3.70;67.80
68719;DHT22;55696;52.138;5.444;2023-03-01T01:16:13;3.70;68.60
68719;DHT22;55696;52.138;5.444;2023-03-01T01:18:41;3.70;68.30
68719;DHT22;55696;52.138;5.444;2023-03-01T01:21:10;3.80;67.80
68719;DHT22;55696;52.138;5.444;2023-03-01T01:23:39;3.80;69.00
68719;DHT22;55696;52.138;5.444;2023-03-01T01:26:27;3.70;68.90
68719;DHT22;55696;52.138;5.444;2023-03-01T01:28:55;3.70;70.00
68719;DHT22;55696;52.138;5.444;2023-03-01T01:31:24;3.70;68.20
68719;DHT22;55696;52.138;5.444;2023-03-01T01:33:52;3.70;68.30
68719;DHT22;55696;52.138;5.444;2023-03-01T01:36:20;4.70;70.40
68719;DHT22;55696;52.138;5.444;2023-03-01T01:38:47;3.70;68.60
68719;DHT22;55696;52.138;5.444;2023-03-01T01:41:15;3.60;68.20
68719;DHT22;55696;52.138;5.444;2023-03-01T01:46:41;3.60;69.90
68719;DHT22;55696;52.138;5.444;2023-03-01T01:52:00;3.50;71.10
68719;DHT22;55696;52.138;5.444;2023-03-01T01:54:35;3.50;70.20
68719;DHT22;55696;52.138;5.444;2023-03-01T01:57:11;3.50;70.40
68719;DHT22;55696;52.138;5.444;2023-03-01T01:59:40;3.50;70.00
68719;DHT22;55696;52.138;5.444;2023-03-01T02:02:09;3.50;70.30
68719;DHT22;55696;52.138;5.444;2023-03-01T02:04:36;3.50;69.10
68719;DHT22;55696;52.138;5.444;2023-03-01T02:07:09;3.50;69.20
68719;DHT22;55696;52.138;5.444;2023-03-01T02:09:37;3.40;70.80
68719;DHT22;55696;52.138;5.444;2023-03-01T02:12:05;3.40;69.50
68719;DHT22;55696;52.138;5.444;2023-03-01T02:14:33;3.40;69.80
68719;DHT22;55696;52.138;5.444;2023-03-01T02:17:00;3.40;69.70
68719;DHT22;55696;52.138;5.444;2023-03-01T02:22:30;3.30;72.00
68719;DHT22;55696;52.138;5.444;2023-03-01T02:30:47;3.50;71.80
68719;DHT22;55696;52.138;5.444;2023-03-01T02:33:37;3.40;71.90
68719;DHT22;55696;52.138;5.444;2023-03-01T02:36:15;3.30;71.20
68719;DHT22;55696;52.138;5.444;2023-03-01T02:38:43;3.40;72.30
68719;DHT22;55696;52.138;5.444;2023-03-01T02:41:14;3.30;70.30
68719;DHT22;55696;52.138;5.444;2023-03-01T02:43:42;3.30;72.00
68719;DHT22;55696;52.138;5.444;2023-03-01T02:46:15;3.80;70.90
68719;DHT22;55696;52.138;5.444;2023-03-01T02:49:00;3.30;72.40
68719;DHT22;55696;52.138;5.444;2023-03-01T02:51:45;3.20;72.80
68719;DHT22;55696;52.138;5.444;2023-03-01T02:54:38;3.20;72.40
68719;DHT22;55696;52.138;5.444;2023-03-01T02:57:02;3.20;70.60
68719;DHT22;55696;52.138;5.444;2023-03-01T02:59:33;3.20;70.90
68719;DHT22;55696;52.138;5.444;2023-03-01T03:02:18;3.20;72.10
68719;DHT22;55696;52.138;5.444;2023-03-01T03:04:47;3.20;71.00
68719;DHT22;55696;52.138;5.444;2023-03-01T03:07:14;3.20;70.90
68719;DHT22;55696;52.138;5.444;2023-03-01T03:09:41;3.20;70.60
68719;DHT22;55696;52.138;5.444;2023-03-01T03:12:07;3.20;70.70
68719;DHT22;55696;52.138;5.444;2023-03-01T03:14:34;3.20;70.70
68719;DHT22;55696;52.138;5.444;2023-03-01T03:17:01;3.20;70.90
68719;DHT22;55696;52.138;5.444;2023-03-01T03:19:33;3.10;70.70
68719;DHT22;55696;52.138;5.444;2023-03-01T03:21:59;3.10;70.80
68719;DHT22;55696;52.138;5.444;2023-03-01T03:24:26;3.10;71.00
68719;DHT22;55696;52.138;5.444;2023-03-01T03:27:05;3.10;70.80
68719;DHT22;55696;52.138;5.444;2023-03-01T03:29:32;3.10;71.50
68719;DHT22;55696;52.138;5.444;2023-03-01T03:31:59;3.00;70.90
68719;DHT22;55696;52.138;5.444;2023-03-01T03:34:25;3.10;71.10
68719;DHT22;55696;52.138;5.444;2023-03-01T03:36:53;2.90;71.00
68719;DHT22;55696;52.138;5.444;2023-03-01T03:39:23;2.90;71.80
68719;DHT22;55696;52.138;5.444;2023-03-01T03:41:50;2.90;71.70
68719;DHT22;55696;52.138;5.444;2023-03-01T03:44:17;2.90;71.30
68719;DHT22;55696;52.138;5.444;2023-03-01T03:46:43;3.00;71.20
68719;DHT22;55696;52.138;5.444;2023-03-01T03:49:10;2.80;71.20
68719;DHT22;55696;52.138;5.444;2023-03-01T03:51:37;2.90;71.30
68719;DHT22;55696;52.138;5.444;2023-03-01T03:54:04;2.90;71.20
68719;DHT22;55696;52.138;5.444;2023-03-01T03:56:31;2.90;71.20
68719;DHT22;55696;52.138;5.444;2023-03-01T03:58:58;2.80;71.20
68719;DHT22;55696;52.138;5.444;2023-03-01T04:01:25;2.80;71.20
68719;DHT22;55696;52.138;5.444;2023-03-01T04:03:51;2.80;71.40
68719;DHT22;55696;52.138;5.444;2023-03-01T04:06:21;2.80;71.30
68719;DHT22;55696;52.138;5.444;2023-03-01T04:08:48;2.80;72.00
68719;DHT22;55696;52.138;5.444;2023-03-01T04:11:17;2.70;71.40
68719;DHT22;55696;52.138;5.444;2023-03-01T04:13:55;2.70;71.20
68719;DHT22;55696;52.138;5.444;2023-03-01T04:16:22;2.70;72.70
68719;DHT22;55696;52.138;5.444;2023-03-01T04:18:50;2.70;71.70
68719;DHT22;55696;52.138;5.444;2023-03-01T04:21:17;2.70;71.80
68719;DHT22;55696;52.138;5.444;2023-03-01T04:23:44;2.70;71.50
68719;DHT22;55696;52.138;5.444;2023-03-01T04:26:10;3.30;72.00
68719;DHT22;55696;52.138;5.444;2023-03-01T04:28:40;2.70;71.80
68719;DHT22;55696;52.138;5.444;2023-03-01T04:31:11;2.70;73.20
68719;DHT22;55696;52.138;5.444;2023-03-01T04:33:48;2.60;73.20
68719;DHT22;55696;52.138;5.444;2023-03-01T04:36:16;2.60;73.80
68719;DHT22;55696;52.138;5.444;2023-03-01T04:38:44;2.50;72.60
68719;DHT22;55696;52.138;5.444;2023-03-01T04:41:16;2.50;72.20
68719;DHT22;55696;52.138;5.444;2023-03-01T04:43:46;2.40;73.00
68719;DHT22;55696;52.138;5.444;2023-03-01T04:46:18;2.50;72.00
68719;DHT22;55696;52.138;5.444;2023-03-01T04:48:46;2.40;73.60
68719;DHT22;55696;52.138;5.444;2023-03-01T04:51:14;2.40;72.20
68719;DHT22;55696;52.138;5.444;2023-03-01T04:53:41;2.40;72.20
68719;DHT22;55696;52.138;5.444;2023-03-01T04:56:08;2.40;72.40
68719;DHT22;55696;52.138;5.444;2023-03-01T04:58:36;2.30;72.50
68719;DHT22;55696;52.138;5.444;2023-03-01T05:01:09;2.20;72.40
68719;DHT22;55696;52.138;5.444;2023-03-01T05:03:46;2.10;74.10
68719;DHT22;55696;52.138;5.444;2023-03-01T05:06:14;2.10;74.00
68719;DHT22;55696;52.138;5.444;2023-03-01T05:08:41;2.10;72.90
68719;DHT22;55696;52.138;5.444;2023-03-01T05:11:09;2.10;72.80
68719;DHT22;55696;52.138;5.444;2023-03-01T05:13:38;0.10;72.30
68719;DHT22;55696;52.138;5.444;2023-03-01T05:16:06;2.10;73.60
68719;DHT22;55696;52.138;5.444;2023-03-01T05:18:33;2.10;73.50
68719;DHT22;55696;52.138;5.444;2023-03-01T05:21:07;2.10;73.30
68719;DHT22;55696;52.138;5.444;2023-03-01T05:23:34;2.10;74.60
68719;DHT22;55696;52.138;5.444;2023-03-01T05:26:02;2.20;73.10
68719;DHT22;55696;52.138;5.444;2023-03-01T05:28:33;3.00;74.00
68719;DHT22;55696;52.138;5.444;2023-03-01T05:31:00;2.20;72.90
68719;DHT22;55696;52.138;5.444;2023-03-01T05:33:27;2.20;72.60
68719;DHT22;55696;52.138;5.444;2023-03-01T05:35:54;2.20;72.70
68719;DHT22;55696;52.138;5.444;2023-03-01T05:38:21;2.10;72.60
68719;DHT22;55696;52.138;5.444;2023-03-01T05:40:49;2.10;72.60
68719;DHT22;55696;52.138;5.444;2023-03-01T05:43:16;2.10;72.70
68719;DHT22;55696;52.138;5.444;2023-03-01T05:45:44;2.10;73.30
68719;DHT22;55696;52.138;5.444;2023-03-01T05:48:12;2.10;73.10
68719;DHT22;55696;52.138;5.444;2023-03-01T05:50:42;2.00;73.20
68719;DHT22;55696;52.138;5.444;2023-03-01T05:53:12;2.10;74.10
68719;DHT22;55696;52.138;5.444;2023-03-01T05:55:39;2.00;73.90
68719;DHT22;55696;52.138;5.444;2023-03-01T05:58:10;2.00;72.40
68719;DHT22;55696;52.138;5.444;2023-03-01T06:00:37;1.90;74.50
68719;DHT22;55696;52.138;5.444;2023-03-01T06:03:04;3.70;74.30
68719;DHT22;55696;52.138;5.444;2023-03-01T06:05:31;1.90;73.10
68719;DHT22;55696;52.138;5.444;2023-03-01T06:07:59;1.90;73.60
68719;DHT22;55696;52.138;5.444;2023-03-01T06:10:26;2.00;73.80
68719;DHT22;55696;52.138;5.444;2023-03-01T06:12:54;1.90;73.50
68719;DHT22;55696;52.138;5.444;2023-03-01T06:15:21;1.90;73.50
68719;DHT22;55696;52.138;5.444;2023-03-01T06:17:48;1.90;73.50
68719;DHT22;55696;52.138;5.444;2023-03-01T06:20:22;1.90;73.10
68719;DHT22;55696;52.138;5.444;2023-03-01T06:22:49;2.00;74.70
68719;DHT22;55696;52.138;5.444;2023-03-01T06:25:19;1.90;73.00
68719;DHT22;55696;52.138;5.444;2023-03-01T06:27:47;2.00;74.10
68719;DHT22;55696;52.138;5.444;2023-03-01T06:30:17;2.10;73.30
68719;DHT22;55696;52.138;5.444;2023-03-01T06:32:44;2.00;74.00
68719;DHT22;55696;52.138;5.444;2023-03-01T06:35:12;2.00;72.80
68719;DHT22;55696;52.138;5.444;2023-03-01T06:37:40;2.00;73.70
68719;DHT22;55696;52.138;5.444;2023-03-01T06:40:09;1.90;73.50
68719;DHT22;55696;52.138;5.444;2023-03-01T06:42:39;2.00;74.10
68719;DHT22;55696;52.138;5.444;2023-03-01T06:45:08;2.00;73.90
68719;DHT22;55696;52.138;5.444;2023-03-01T06:47:35;2.00;73.30
68719;DHT22;55696;52.138;5.444;2023-03-01T06:50:02;2.00;73.10
68719;DHT22;55696;52.138;5.444;2023-03-01T06:52:29;2.90;73.30
68719;DHT22;55696;52.138;5.444;2023-03-01T06:54:56;2.10;73.00
68719;DHT22;55696;52.138;5.444;2023-03-01T06:57:23;2.10;72.70
68719;DHT22;55696;52.138;5.444;2023-03-01T06:59:50;2.10;73.00
68719;DHT22;55696;52.138;5.444;2023-03-01T07:02:16;2.10;73.00
68719;DHT22;55696;52.138;5.444;2023-03-01T07:04:43;2.20;72.80
68719;DHT22;55696;52.138;5.444;2023-03-01T07:07:10;2.20;72.90
68719;DHT22;55696;52.138;5.444;2023-03-01T07:09:37;2.20;73.30
68719;DHT22;55696;52.138;5.444;2023-03-01T07:12:04;2.30;72.80
68719;DHT22;55696;52.138;5.444;2023-03-01T07:14:31;2.30;73.10
68719;DHT22;55696;52.138;5.444;2023-03-01T07:16:58;2.50;72.70
68719;DHT22;55696;52.138;5.444;2023-03-01T07:19:25;2.50;72.40
68719;DHT22;55696;52.138;5.444;2023-03-01T07:21:52;2.60;72.40
68719;DHT22;55696;52.138;5.444;2023-03-01T07:24:18;2.70;72.30
68719;DHT22;55696;52.138;5.444;2023-03-01T07:26:48;2.80;72.50
68719;DHT22;55696;52.138;5.444;2023-03-01T07:29:16;2.80;73.70
68719;DHT22;55696;52.138;5.444;2023-03-01T07:31:43;2.90;72.00
68719;DHT22;55696;52.138;5.444;2023-03-01T07:34:10;3.00;72.40
68719;DHT22;55696;52.138;5.444;2023-03-01T07:36:37;3.10;71.80
68719;DHT22;55696;52.138;5.444;2023-03-01T07:39:06;3.20;72.20
68719;DHT22;55696;52.138;5.444;2023-03-01T07:41:33;3.30;71.90
68719;DHT22;55696;52.138;5.444;2023-03-01T07:43:59;3.30;71.80
68719;DHT22;55696;52.138;5.444;2023-03-01T07:46:26;3.30;71.80
68719;DHT22;55696;52.138;5.444;2023-03-01T07:48:53;3.40;71.60
68719;DHT22;55696;52.138;5.444;2023-03-01T07:51:20;3.40;71.80
68719;DHT22;55696;52.138;5.444;2023-03-01T07:53:47;3.60;71.90
68719;DHT22;55696;52.138;5.444;2023-03-01T07:56:15;3.50;71.70
68719;DHT22;55696;52.138;5.444;2023-03-01T07:58:44;3.60;72.00
68719;DHT22;55696;52.138;5.444;2023-03-01T08:01:17;3.70;72.20
68719;DHT22;55696;52.138;5.444;2023-03-01T08:03:44;3.90;72.00
68719;DHT22;55696;52.138;5.444;2023-03-01T08:06:13;3.90;71.20
68719;DHT22;55696;52.138;5.444;2023-03-01T08:08:40;4.00;71.80
68719;DHT22;55696;52.138;5.444;2023-03-01T08:11:09;4.10;70.90
68719;DHT22;55696;52.138;5.444;2023-03-01T08:13:36;4.20;71.50
68719;DHT22;55696;52.138;5.444;2023-03-01T08:16:06;4.40;70.30
68719;DHT22;55696;52.138;5.444;2023-03-01T08:18:33;4.30;71.00
68719;DHT22;55696;52.138;5.444;2023-03-01T08:21:08;4.30;70.00
68719;DHT22;55696;52.138;5.444;2023-03-01T08:23:36;4.40;72.30
68719;DHT22;55696;52.138;5.444;2023-03-01T08:26:07;4.50;69.80
68719;DHT22;55696;52.138;5.444;2023-03-01T08:28:36;4.70;71.20
68719;DHT22;55696;52.138;5.444;2023-03-01T08:31:12;4.80;70.30
68719;DHT22;55696;52.138;5.444;2023-03-01T08:33:39;5.00;69.00
68719;DHT22;55696;52.138;5.444;2023-03-01T08:36:06;5.10;68.40
68719;DHT22;55696;52.138;5.444;2023-03-01T08:38:34;5.20;68.20
68719;DHT22;55696;52.138;5.444;2023-03-01T08:41:02;5.30;68.70
68719;DHT22;55696;52.138;5.444;2023-03-01T08:43:30;5.40;68.70
68719;DHT22;55696;52.138;5.444;2023-03-01T08:45:57;5.40;67.60
68719;DHT22;55696;52.138;5.444;2023-03-01T08:48:24;5.60;67.30
68719;DHT22;55696;52.138;5.444;2023-03-01T08:50:51;5.70;67.70
68719;DHT22;55696;52.138;5.444;2023-03-01T08:53:18;5.80;66.80
68719;DHT22;55696;52.138;5.444;2023-03-01T08:55:45;5.90;66.80
68719;DHT22;55696;52.138;5.444;2023-03-01T08:58:11;6.00;66.50
68719;DHT22;55696;52.138;5.444;2023-03-01T09:00:38;6.10;66.30
68719;DHT22;55696;52.138;5.444;2023-03-01T09:03:06;6.20;66.10
68719;DHT22;55696;52.138;5.444;2023-03-01T09:05:34;6.30;65.70
68719;DHT22;55696;52.138;5.444;2023-03-01T09:08:01;6.30;66.00
68719;DHT22;55696;52.138;5.444;2023-03-01T09:10:27;6.40;64.90
68719;DHT22;55696;52.138;5.444;2023-03-01T09:12:54;6.50;64.90
68719;DHT22;55696;52.138;5.444;2023-03-01T09:15:21;6.60;64.80
68719;DHT22;55696;52.138;5.444;2023-03-01T09:17:48;6.70;64.50
68719;DHT22;55696;52.138;5.444;2023-03-01T09:20:15;6.80;64.40
68719;DHT22;55696;52.138;5.444;2023-03-01T09:22:42;7.00;64.40
68719;DHT22;55696;52.138;5.444;2023-03-01T09:25:10;6.90;63.70
68719;DHT22;55696;52.138;5.444;2023-03-01T09:27:37;7.00;63.30
68719;DHT22;55696;52.138;5.444;2023-03-01T09:30:04;7.10;63.40
68719;DHT22;55696;52.138;5.444;2023-03-01T09:32:31;7.20;63.40
68719;DHT22;55696;52.138;5.444;2023-03-01T09:34:58;7.30;62.70
68719;DHT22;55696;52.138;5.444;2023-03-01T09:37:32;8.20;62.80
68719;DHT22;55696;52.138;5.444;2023-03-01T09:39:59;7.50;63.50
68719;DHT22;55696;52.138;5.444;2023-03-01T09:42:28;7.60;61.90
68719;DHT22;55696;52.138;5.444;2023-03-01T09:45:00;7.70;62.70
68719;DHT22;55696;52.138;5.444;2023-03-01T09:47:30;7.70;62.70
68719;DHT22;55696;52.138;5.444;2023-03-01T09:50:19;7.80;62.30
68719;DHT22;55696;52.138;5.444;2023-03-01T09:52:53;8.00;63.10
68719;DHT22;55696;52.138;5.444;2023-03-01T09:55:32;8.00;62.30
68719;DHT22;55696;52.138;5.444;2023-03-01T09:58:04;8.00;61.10
68719;DHT22;55696;52.138;5.444;2023-03-01T10:00:47;8.10;59.40
68719;DHT22;55696;52.138;5.444;2023-03-01T10:08:55;8.30;60.00
68719;DHT22;55696;52.138;5.444;2023-03-01T10:11:27;8.30;60.20
68719;DHT22;55696;52.138;5.444;2023-03-01T10:14:03;8.40;59.50
68719;DHT22;55696;52.138;5.444;2023-03-01T10:16:52;8.40;58.90
68719;DHT22;55696;52.138;5.444;2023-03-01T10:22:10;8.60;58.70
68719;DHT22;55696;52.138;5.444;2023-03-01T10:24:38;8.60;58.60
68719;DHT22;55696;52.138;5.444;2023-03-01T10:27:12;8.70;57.20
68719;DHT22;55696;52.138;5.444;2023-03-01T10:32:29;8.90;58.10
68719;DHT22;55696;52.138;5.444;2023-03-01T10:34:56;8.90;56.30
68719;DHT22;55696;52.138;5.444;2023-03-01T10:37:24;8.90;56.10
68719;DHT22;55696;52.138;5.444;2023-03-01T10:40:05;9.00;55.90
68719;DHT22;55696;52.138;5.444;2023-03-01T10:42:40;9.00;57.70
68719;DHT22;55696;52.138;5.444;2023-03-01T10:47:42;8.90;56.50
68719;DHT22;55696;52.138;5.444;2023-03-01T10:50:21;8.90;54.30
68719;DHT22;55696;52.138;5.444;2023-03-01T10:53:03;9.10;57.40
68719;DHT22;55696;52.138;5.444;2023-03-01T10:55:37;9.20;56.00
68719;DHT22;55696;52.138;5.444;2023-03-01T10:58:19;9.10;55.20
68719;DHT22;55696;52.138;5.444;2023-03-01T11:01:01;9.20;54.50
68719;DHT22;55696;52.138;5.444;2023-03-01T11:03:30;9.40;54.00
68719;DHT22;55696;52.138;5.444;2023-03-01T11:08:46;9.40;53.70
68719;DHT22;55696;52.138;5.444;2023-03-01T11:11:34;9.40;54.60
68719;DHT22;55696;52.138;5.444;2023-03-01T11:14:15;9.50;54.00
68719;DHT22;55696;52.138;5.444;2023-03-01T11:17:04;9.50;54.30
68719;DHT22;55696;52.138;5.444;2023-03-01T11:19:32;9.50;53.60
68719;DHT22;55696;52.138;5.444;2023-03-01T11:22:18;9.40;50.50
68719;DHT22;55696;52.138;5.444;2023-03-01T11:24:48;9.40;52.40
68719;DHT22;55696;52.138;5.444;2023-03-01T11:27:35;9.50;51.40
68719;DHT22;55696;52.138;5.444;2023-03-01T11:30:26;9.60;51.40
68719;DHT22;55696;52.138;5.444;2023-03-01T11:35:24;9.60;49.40
68719;DHT22;55696;52.138;5.444;2023-03-01T11:41:00;9.80;51.80
68719;DHT22;55696;52.138;5.444;2023-03-01T11:43:58;9.80;51.70
68719;DHT22;55696;52.138;5.444;2023-03-01T12:00:58;10.40;50.60
68719;DHT22;55696;52.138;5.444;2023-03-01T12:09:22;10.70;50.00
68719;DHT22;55696;52.138;5.444;2023-03-01T12:12:11;10.80;50.10
68719;DHT22;55696;52.138;5.444;2023-03-01T12:20:22;10.90;48.80
68719;DHT22;55696;52.138;5.444;2023-03-01T12:32:06;11.30;45.80
68719;DHT22;55696;52.138;5.444;2023-03-01T12:48:30;11.80;44.10
68719;DHT22;55696;52.138;5.444;2023-03-01T12:51:03;11.80;46.50
68719;DHT22;55696;52.138;5.444;2023-03-01T12:53:35;11.80;46.40
68719;DHT22;55696;52.138;5.444;2023-03-01T12:56:09;12.00;46.30
68719;DHT22;55696;52.138;5.444;2023-03-01T13:07:35;12.60;42.80
68719;DHT22;55696;52.138;5.444;2023-03-01T13:15:35;12.90;43.60
68719;DHT22;55696;52.138;5.444;2023-03-01T13:33:51;13.10;42.50
68719;DHT22;55696;52.138;5.444;2023-03-01T13:41:49;13.20;39.90
68719;DHT22;55696;52.138;5.444;2023-03-01T13:44:37;13.40;42.30
68719;DHT22;55696;52.138;5.444;2023-03-01T13:49:55;13.50;39.10
68719;DHT22;55696;52.138;5.444;2023-03-01T13:52:44;13.50;41.30
68719;DHT22;55696;52.138;5.444;2023-03-01T13:57:43;13.60;40.70
68719;DHT22;55696;52.138;5.444;2023-03-01T14:00:36;13.60;40.30
68719;DHT22;55696;52.138;5.444;2023-03-01T14:05:43;13.90;39.40
68719;DHT22;55696;52.138;5.444;2023-03-01T14:08:22;14.00;39.50
68719;DHT22;55696;52.138;5.444;2023-03-01T14:19:29;13.70;39.50
68719;DHT22;55696;52.138;5.444;2023-03-01T14:24:59;13.50;39.60
68719;DHT22;55696;52.138;5.444;2023-03-01T14:27:35;13.40;40.80
68719;DHT22;55696;52.138;5.444;2023-03-01T14:30:11;13.60;41.50
68719;DHT22;55696;52.138;5.444;2023-03-01T14:32:39;13.80;40.60
68719;DHT22;55696;52.138;5.444;2023-03-01T14:35:24;13.80;38.00
68719;DHT22;55696;52.138;5.444;2023-03-01T14:37:51;14.00;40.00
68719;DHT22;55696;52.138;5.444;2023-03-01T14:40:31;13.90;37.40
68719;DHT22;55696;52.138;5.444;2023-03-01T14:43:01;13.80;39.40
68719;DHT22;55696;52.138;5.444;2023-03-01T14:45:29;13.80;39.30
68719;DHT22;55696;52.138;5.444;2023-03-01T14:48:03;13.90;39.10
68719;DHT22;55696;52.138;5.444;2023-03-01T14:50:35;13.80;39.80
68719;DHT22;55696;52.138;5.444;2023-03-01T14:53:07;14.20;39.40
68719;DHT22;55696;52.138;5.444;2023-03-01T14:55:41;13.90;38.50
68719;DHT22;55696;52.138;5.444;2023-03-01T14:58:13;14.40;40.90
68719;DHT22;55696;52.138;5.444;2023-03-01T15:00:49;13.80;39.60
68719;DHT22;55696;52.138;5.444;2023-03-01T15:03:31;13.80;40.10
68719;DHT22;55696;52.138;5.444;2023-03-01T15:06:01;13.70;39.40
68719;DHT22;55696;52.138;5.444;2023-03-01T15:08:28;13.60;39.10
68719;DHT22;55696;52.138;5.444;2023-03-01T15:11:15;13.40;38.60
68719;DHT22;55696;52.138;5.444;2023-03-01T15:13:43;13.40;40.00
68719;DHT22;55696;52.138;5.444;2023-03-01T15:16:15;13.50;39.40
68719;DHT22;55696;52.138;5.444;2023-03-01T15:18:55;13.60;40.60
68719;DHT22;55696;52.138;5.444;2023-03-01T15:21:29;14.30;41.20
68719;DHT22;55696;52.138;5.444;2023-03-01T15:24:06;13.50;39.20
68719;DHT22;55696;52.138;5.444;2023-03-01T15:26:42;13.50;39.60
68719;DHT22;55696;52.138;5.444;2023-03-01T15:29:20;13.60;40.10
68719;DHT22;55696;52.138;5.444;2023-03-01T15:32:03;13.70;40.70
68719;DHT22;55696;52.138;5.444;2023-03-01T15:34:34;13.70;39.70
68719;DHT22;55696;52.138;5.444;2023-03-01T15:37:05;13.50;39.10
68719;DHT22;55696;52.138;5.444;2023-03-01T15:42:09;13.40;39.50
68719;DHT22;55696;52.138;5.444;2023-03-01T15:44:40;13.40;40.40
68719;DHT22;55696;52.138;5.444;2023-03-01T15:47:40;13.90;39.90
68719;DHT22;55696;52.138;5.444;2023-03-01T15:50:28;13.30;40.70
68719;DHT22;55696;52.138;5.444;2023-03-01T15:52:57;13.30;40.60
68719;DHT22;55696;52.138;5.444;2023-03-01T15:55:30;13.40;40.00
68719;DHT22;55696;52.138;5.444;2023-03-01T16:00:29;13.30;39.30
68719;DHT22;55696;52.138;5.444;2023-03-01T16:02:56;13.10;39.00
68719;DHT22;55696;52.138;5.444;2023-03-01T16:05:26;13.00;38.90
68719;DHT22;55696;52.138;5.444;2023-03-01T16:07:54;12.90;40.40
68719;DHT22;55696;52.138;5.444;2023-03-01T16:10:21;12.70;39.90
68719;DHT22;55696;52.138;5.444;2023-03-01T16:12:49;12.50;39.80
68719;DHT22;55696;52.138;5.444;2023-03-01T16:15:31;12.50;40.40
68719;DHT22;55696;52.138;5.444;2023-03-01T16:17:59;12.70;43.10
68719;DHT22;55696;52.138;5.444;2023-03-01T16:20:26;11.80;40.80
68719;DHT22;55696;52.138;5.444;2023-03-01T16:23:01;11.90;42.10
68719;DHT22;55696;52.138;5.444;2023-03-01T16:25:29;12.30;43.80
68719;DHT22;55696;52.138;5.444;2023-03-01T16:27:56;11.60;42.40
68719;DHT22;55696;52.138;5.444;2023-03-01T16:30:25;13.30;44.30
68719;DHT22;55696;52.138;5.444;2023-03-01T16:32:52;11.40;42.30
68719;DHT22;55696;52.138;5.444;2023-03-01T16:35:21;11.10;42.90
68719;DHT22;55696;52.138;5.444;2023-03-01T16:37:48;11.20;44.20
68719;DHT22;55696;52.138;5.444;2023-03-01T16:40:19;11.00;43.30
68719;DHT22;55696;52.138;5.444;2023-03-01T16:42:51;11.10;45.20
68719;DHT22;55696;52.138;5.444;2023-03-01T16:45:18;10.90;45.40
68719;DHT22;55696;52.138;5.444;2023-03-01T16:47:51;10.90;44.30
68719;DHT22;55696;52.138;5.444;2023-03-01T16:50:21;10.80;44.40
68719;DHT22;55696;52.138;5.444;2023-03-01T16:52:48;10.80;44.60
68719;DHT22;55696;52.138;5.444;2023-03-01T16:55:15;10.70;44.50
68719;DHT22;55696;52.138;5.444;2023-03-01T16:57:42;10.60;44.60
68719;DHT22;55696;52.138;5.444;2023-03-01T17:00:10;10.40;44.70
68719;DHT22;55696;52.138;5.444;2023-03-01T17:02:40;10.40;45.90
68719;DHT22;55696;52.138;5.444;2023-03-01T17:05:08;10.40;46.00
68719;DHT22;55696;52.138;5.444;2023-03-01T17:07:36;10.10;46.20
68719;DHT22;55696;52.138;5.444;2023-03-01T17:10:05;10.10;45.80
68719;DHT22;55696;52.138;5.444;2023-03-01T17:12:35;10.10;47.30
68719;DHT22;55696;52.138;5.444;2023-03-01T17:15:03;9.90;46.60
68719;DHT22;55696;52.138;5.444;2023-03-01T17:17:31;9.80;47.00
68719;DHT22;55696;52.138;5.444;2023-03-01T17:19:58;9.80;47.10
68719;DHT22;55696;52.138;5.444;2023-03-01T17:22:24;9.70;46.50
68719;DHT22;55696;52.138;5.444;2023-03-01T17:24:51;9.70;46.60
68719;DHT22;55696;52.138;5.444;2023-03-01T17:27:18;9.80;46.80
68719;DHT22;55696;52.138;5.444;2023-03-01T17:29:45;9.60;46.80
68719;DHT22;55696;52.138;5.444;2023-03-01T17:32:12;9.50;46.80
68719;DHT22;55696;52.138;5.444;2023-03-01T17:34:39;9.50;46.90
68719;DHT22;55696;52.138;5.444;2023-03-01T17:37:06;9.40;47.70
68719;DHT22;55696;52.138;5.444;2023-03-01T17:39:32;9.40;47.00
68719;DHT22;55696;52.138;5.444;2023-03-01T17:42:03;9.30;47.30
68719;DHT22;55696;52.138;5.444;2023-03-01T17:44:31;9.20;48.60
68719;DHT22;55696;52.138;5.444;2023-03-01T17:47:01;9.10;49.60
68719;DHT22;55696;52.138;5.444;2023-03-01T17:49:28;9.30;49.50
68719;DHT22;55696;52.138;5.444;2023-03-01T17:51:55;9.30;49.40
68719;DHT22;55696;52.138;5.444;2023-03-01T17:54:22;9.20;49.50
68719;DHT22;55696;52.138;5.444;2023-03-01T17:56:49;9.10;50.10
68719;DHT22;55696;52.138;5.444;2023-03-01T17:59:16;9.00;50.00
68719;DHT22;55696;52.138;5.444;2023-03-01T18:01:43;9.00;49.90
68719;DHT22;55696;52.138;5.444;2023-03-01T18:04:10;8.90;50.40
68719;DHT22;55696;52.138;5.444;2023-03-01T18:06:38;8.80;50.00
68719;DHT22;55696;52.138;5.444;2023-03-01T18:09:06;8.60;51.00
68719;DHT22;55696;52.138;5.444;2023-03-01T18:11:34;8.50;51.00
68719;DHT22;55696;52.138;5.444;2023-03-01T18:14:02;8.40;51.40
68719;DHT22;55696;52.138;5.444;2023-03-01T18:16:29;8.20;51.70
68719;DHT22;55696;52.138;5.444;2023-03-01T18:18:58;8.30;51.80
68719;DHT22;55696;52.138;5.444;2023-03-01T18:21:25;8.10;51.90
68719;DHT22;55696;52.138;5.444;2023-03-01T18:23:52;8.00;52.40
68719;DHT22;55696;52.138;5.444;2023-03-01T18:26:21;8.00;52.10
68719;DHT22;55696;52.138;5.444;2023-03-01T18:28:50;7.80;53.20